createdAt,value
2019-04-26T00:01:05.261Z,8.86
2019-04-26T00:03:33.296Z,8.83
2019-04-26T00:05:59.477Z,8.82
2019-04-26T00:08:25.465Z,8.74
2019-04-26T00:10:59.312Z,8.76
2019-04-26T00:13:44.896Z,8.72
2019-04-26T00:16:12.796Z,8.67
2019-04-26T00:18:39.541Z,8.59
2019-04-26T00:21:05.754Z,8.49
2019-04-26T00:23:31.950Z,8.43
2019-04-26T00:25:58.122Z,8.40
2019-04-26T00:28:24.013Z,8.35
2019-04-26T00:30:49.945Z,8.31
2019-04-26T00:33:15.915Z,8.27
2019-04-26T00:35:47.741Z,8.26
2019-04-26T00:38:09.675Z,8.25
2019-04-26T00:40:35.982Z,8.23
2019-04-26T00:43:02.070Z,8.21
2019-04-26T00:45:29.767Z,8.16
2019-04-26T00:47:56.853Z,8.14
2019-04-26T00:50:23.312Z,8.09
2019-04-26T00:52:50.079Z,8.04
2019-04-26T00:55:16.105Z,8.01
2019-04-26T00:57:42.381Z,7.96
2019-04-26T01:00:10.372Z,7.93
2019-04-26T01:02:38.274Z,7.91
2019-04-26T01:05:04.562Z,7.88
2019-04-26T01:07:30.472Z,7.86
2019-04-26T01:09:56.474Z,7.82
2019-04-26T01:12:22.594Z,7.78
2019-04-26T01:14:48.506Z,7.75
2019-04-26T01:17:14.502Z,7.71
2019-04-26T01:19:41.676Z,7.69
2019-04-26T01:22:09.689Z,7.65
2019-04-26T01:24:37.637Z,7.62
2019-04-26T01:27:04.225Z,7.60
2019-04-26T01:29:30.536Z,7.60
2019-04-26T01:32:10.508Z,7.58
2019-04-26T01:34:38.327Z,7.56
2019-04-26T01:37:04.400Z,7.54
2019-04-26T01:39:30.494Z,7.50
2019-04-26T01:41:58.402Z,7.47
2019-04-26T01:44:37.057Z,7.43
2019-04-26T01:47:03.279Z,7.41
2019-04-26T01:49:29.255Z,7.39
2019-04-26T01:51:57.060Z,7.36
2019-04-26T01:54:25.788Z,7.35
2019-04-26T01:56:53.540Z,7.30
2019-04-26T01:59:21.000Z,7.28
2019-04-26T02:02:07.856Z,7.22
2019-04-26T02:04:35.742Z,7.22
2019-04-26T02:07:01.929Z,7.21
2019-04-26T02:09:28.431Z,7.19
2019-04-26T02:11:54.550Z,7.16
2019-04-26T02:14:20.523Z,7.12
2019-04-26T02:16:46.949Z,7.10
2019-04-26T02:19:12.942Z,7.11
2019-04-26T02:21:40.824Z,7.08
2019-04-26T02:24:14.609Z,7.05
2019-04-26T02:26:43.451Z,7.03
2019-04-26T02:29:11.214Z,6.99
2019-04-26T02:31:38.631Z,6.96
2019-04-26T02:34:04.719Z,6.94
2019-04-26T02:36:47.927Z,6.93
2019-04-26T02:39:00.386Z,6.88
2019-04-26T02:41:28.130Z,6.85
2019-04-26T02:43:55.902Z,6.81
2019-04-26T02:46:28.422Z,6.78
2019-04-26T02:49:00.229Z,6.76
2019-04-26T02:51:29.127Z,6.72
2019-04-26T02:54:00.787Z,6.70
2019-04-26T02:56:32.237Z,6.69
2019-04-26T02:59:01.042Z,6.62
2019-04-26T03:01:29.334Z,6.63
2019-04-26T03:03:55.386Z,6.62
2019-04-26T03:06:21.856Z,6.61
2019-04-26T03:08:48.632Z,6.60
2019-04-26T03:11:17.397Z,6.58
2019-04-26T03:13:53.362Z,6.56
2019-04-26T03:16:41.507Z,6.56
2019-04-26T03:19:23.269Z,6.55
2019-04-26T03:21:51.027Z,6.54
2019-04-26T03:24:37.204Z,6.52
2019-04-26T03:27:23.311Z,6.51
2019-04-26T03:30:16.321Z,6.50
2019-04-26T03:32:26.698Z,6.47
2019-04-26T03:34:56.415Z,6.46
2019-04-26T03:37:28.886Z,6.45
2019-04-26T03:40:04.176Z,6.45
2019-04-26T03:42:33.182Z,6.47
2019-04-26T03:45:13.701Z,6.50
2019-04-26T03:47:47.244Z,6.51
2019-04-26T03:50:15.016Z,6.53
2019-04-26T03:52:44.098Z,6.55
2019-04-26T03:55:24.930Z,6.56
2019-04-26T03:58:03.463Z,6.57
2019-04-26T04:00:32.675Z,6.58
2019-04-26T04:03:02.333Z,6.60
2019-04-26T04:05:35.987Z,6.61
2019-04-26T04:08:04.200Z,6.64
2019-04-26T04:10:41.935Z,6.67
2019-04-26T04:13:15.315Z,6.65
2019-04-26T04:15:44.685Z,6.67
2019-04-26T04:18:21.051Z,6.68
2019-04-26T04:21:10.300Z,6.67
2019-04-26T04:23:41.835Z,6.68
2019-04-26T04:26:10.429Z,6.69
2019-04-26T04:28:40.036Z,6.71
2019-04-26T04:31:13.778Z,6.71
2019-04-26T04:33:50.503Z,6.78
2019-04-26T04:36:21.005Z,6.80
2019-04-26T04:39:10.808Z,6.84
2019-04-26T04:41:38.423Z,6.88
2019-04-26T04:44:11.067Z,6.93
2019-04-26T04:46:51.886Z,6.98
2019-04-26T04:49:41.121Z,7.05
2019-04-26T04:52:11.933Z,7.09
2019-04-26T04:54:39.692Z,7.17
2019-04-26T04:57:07.460Z,7.23
2019-04-26T04:59:50.555Z,7.29
2019-04-26T05:02:35.221Z,7.36
2019-04-26T05:05:16.796Z,7.43
2019-04-26T05:08:06.794Z,7.53
2019-04-26T05:10:47.662Z,7.61
2019-04-26T05:13:18.405Z,7.72
2019-04-26T05:15:50.888Z,7.81
2019-04-26T05:18:35.029Z,7.89
2019-04-26T05:21:02.934Z,7.98
2019-04-26T05:23:47.151Z,8.08
2019-04-26T05:26:25.601Z,8.16
2019-04-26T05:29:15.378Z,8.26
2019-04-26T05:31:45.816Z,8.33
2019-04-26T05:34:26.846Z,8.42
2019-04-26T05:37:11.402Z,8.49
2019-04-26T05:39:57.435Z,8.58
2019-04-26T05:42:27.174Z,8.68
2019-04-26T05:45:19.593Z,8.78
2019-04-26T05:48:11.496Z,8.87
2019-04-26T05:50:55.827Z,8.98
2019-04-26T05:53:34.531Z,9.08
2019-04-26T05:56:22.133Z,9.18
2019-04-26T05:58:52.938Z,9.29
2019-04-26T06:01:25.740Z,9.40
2019-04-26T06:04:17.355Z,9.51
2019-04-26T06:07:03.684Z,9.62
2019-04-26T06:09:58.585Z,9.72
2019-04-26T06:12:34.351Z,9.81
2019-04-26T06:15:04.079Z,9.94
2019-04-26T06:18:02.675Z,10.04
2019-04-26T06:20:36.866Z,10.12
2019-04-26T06:23:13.402Z,10.22
2019-04-26T06:25:52.149Z,10.32
2019-04-26T06:28:22.885Z,10.41
2019-04-26T06:30:50.672Z,10.48
2019-04-26T06:33:30.840Z,10.60
2019-04-26T06:35:59.350Z,10.69
2019-04-26T06:38:44.060Z,10.78
2019-04-26T06:41:10.552Z,10.87
2019-04-26T06:43:40.214Z,10.95
2019-04-26T06:46:28.388Z,11.03
2019-04-26T06:49:29.872Z,11.13
2019-04-26T06:51:58.466Z,10.99
2019-04-26T06:54:32.516Z,11.35
2019-04-26T06:57:17.437Z,11.43
2019-04-26T06:59:51.264Z,11.52
2019-04-26T07:02:19.040Z,11.63
2019-04-26T07:05:03.493Z,11.72
2019-04-26T07:07:48.458Z,11.81
2019-04-26T07:10:21.977Z,11.91
2019-04-26T07:12:51.673Z,12.02
2019-04-26T07:15:35.957Z,12.14
2019-04-26T07:18:10.663Z,12.23
2019-04-26T07:20:42.950Z,12.33
2019-04-26T07:23:24.639Z,12.46
2019-04-26T07:25:59.176Z,12.57
2019-04-26T07:28:47.470Z,12.67
2019-04-26T07:31:31.897Z,12.76
2019-04-26T07:34:07.357Z,12.87
2019-04-26T07:36:50.312Z,12.96
2019-04-26T07:39:31.743Z,13.05
2019-04-26T07:42:10.243Z,13.14
2019-04-26T07:44:51.371Z,13.01
2019-04-26T07:47:31.144Z,13.36
2019-04-26T07:49:58.889Z,13.48
2019-04-26T07:52:29.716Z,13.60
2019-04-26T07:55:14.256Z,13.70
2019-04-26T07:57:58.402Z,13.83
2019-04-26T08:00:28.061Z,13.92
2019-04-26T08:03:04.179Z,14.02
2019-04-26T08:05:47.198Z,14.11
2019-04-26T08:08:15.069Z,14.22
2019-04-26T08:10:42.836Z,14.33
2019-04-26T08:13:13.424Z,14.45
2019-04-26T08:15:42.869Z,14.54
2019-04-26T08:18:21.562Z,14.64
2019-04-26T08:20:50.053Z,14.75
2019-04-26T08:23:37.953Z,14.85
2019-04-26T08:25:47.384Z,14.95
2019-04-26T08:28:15.168Z,15.05
2019-04-26T08:30:44.857Z,15.13
2019-04-26T08:33:14.520Z,15.21
2019-04-26T08:35:44.484Z,15.28
2019-04-26T08:38:16.432Z,15.37
2019-04-26T08:40:39.618Z,15.46
2019-04-26T08:43:27.281Z,15.54
2019-04-26T08:46:03.269Z,15.63
2019-04-26T08:48:31.074Z,15.74
2019-04-26T08:51:00.485Z,15.83
2019-04-26T08:53:27.983Z,15.92
2019-04-26T08:55:55.207Z,16.03
2019-04-26T08:58:22.959Z,16.12
2019-04-26T09:00:58.617Z,16.19
2019-04-26T09:03:36.905Z,16.29
2019-04-26T09:06:20.254Z,16.39
2019-04-26T09:08:47.609Z,16.47
2019-04-26T09:11:25.501Z,16.58
2019-04-26T09:13:44.945Z,16.67
2019-04-26T09:16:12.638Z,16.77
2019-04-26T09:18:43.706Z,16.85
2019-04-26T09:21:06.574Z,16.95
2019-04-26T09:23:52.017Z,17.06
2019-04-26T09:26:36.645Z,17.16
2019-04-26T09:29:22.679Z,17.33
2019-04-26T09:32:02.608Z,17.45
2019-04-26T09:34:41.293Z,17.78
2019-04-26T09:37:07.296Z,18.31
2019-04-26T09:39:33.275Z,18.90
2019-04-26T09:42:04.753Z,19.40
2019-04-26T09:44:30.718Z,19.78
2019-04-26T09:47:04.377Z,20.09
2019-04-26T09:49:32.125Z,20.41
2019-04-26T09:51:58.266Z,20.70
2019-04-26T09:54:24.192Z,20.95
2019-04-26T09:56:50.146Z,21.16
2019-04-26T09:59:16.123Z,21.31
2019-04-26T10:01:42.091Z,21.45
2019-04-26T10:04:07.938Z,21.63
2019-04-26T10:06:33.829Z,21.74
2019-04-26T10:08:59.829Z,21.88
2019-04-26T10:11:27.786Z,21.98
2019-04-26T10:13:58.200Z,22.12
2019-04-26T10:16:26.016Z,22.22
2019-04-26T10:18:54.513Z,22.32
2019-04-26T10:21:20.465Z,22.41
2019-04-26T10:23:46.407Z,22.50
2019-04-26T10:26:12.384Z,22.59
2019-04-26T10:28:38.290Z,22.64
2019-04-26T10:31:04.346Z,22.73
2019-04-26T10:33:32.626Z,22.83
2019-04-26T10:35:58.157Z,22.90
2019-04-26T10:38:25.439Z,22.95
2019-04-26T10:40:51.477Z,23.01
2019-04-26T10:43:17.470Z,23.06
2019-04-26T10:45:45.903Z,23.03
2019-04-26T10:48:13.912Z,23.10
2019-04-26T10:50:38.884Z,23.14
2019-04-26T10:53:15.336Z,23.18
2019-04-26T10:55:46.375Z,23.23
2019-04-26T10:58:22.435Z,23.31
2019-04-26T11:00:52.623Z,23.36
2019-04-26T11:03:18.261Z,23.45
2019-04-26T11:05:44.235Z,23.53
2019-04-26T11:08:10.141Z,23.59
2019-04-26T11:10:47.906Z,23.69
2019-04-26T11:13:04.028Z,23.79
2019-04-26T11:15:32.735Z,23.87
2019-04-26T11:17:57.825Z,23.92
2019-04-26T11:20:23.715Z,23.98
2019-04-26T11:22:49.707Z,24.02
2019-04-26T11:25:15.573Z,24.08
2019-04-26T11:27:44.306Z,24.14
2019-04-26T11:30:12.268Z,24.17
2019-04-26T11:32:38.259Z,24.23
2019-04-26T11:35:04.418Z,24.30
2019-04-26T11:37:30.586Z,24.34
2019-04-26T11:39:56.516Z,24.42
2019-04-26T11:42:22.411Z,24.52
2019-04-26T11:44:48.265Z,24.61
2019-04-26T11:47:14.143Z,24.68
2019-04-26T11:49:41.496Z,24.75
2019-04-26T11:52:07.808Z,24.77
2019-04-26T11:54:33.770Z,24.83
2019-04-26T11:56:59.821Z,24.87
2019-04-26T11:59:27.109Z,24.91
2019-04-26T12:01:53.510Z,24.97
2019-04-26T12:04:21.298Z,25.05
2019-04-26T12:06:54.950Z,25.09
2019-04-26T12:09:22.831Z,25.16
2019-04-26T12:11:50.916Z,25.25
2019-04-26T12:14:20.449Z,25.34
2019-04-26T12:16:49.528Z,25.40
2019-04-26T12:19:14.316Z,25.43
2019-04-26T12:21:39.745Z,25.46
2019-04-26T12:24:05.744Z,25.49
2019-04-26T12:26:42.318Z,25.48
2019-04-26T12:28:59.431Z,25.48
2019-04-26T12:31:25.400Z,25.52
2019-04-26T12:33:51.270Z,25.53
2019-04-26T12:36:17.214Z,25.56
2019-04-26T12:38:43.342Z,25.59
2019-04-26T12:41:11.415Z,25.63
2019-04-26T12:43:37.178Z,25.68
2019-04-26T12:46:07.656Z,25.67
2019-04-26T12:48:33.809Z,25.61
2019-04-26T12:50:59.781Z,25.55
2019-04-26T12:53:26.731Z,25.49
2019-04-26T12:55:58.039Z,25.52
2019-04-26T12:58:21.134Z,25.53
2019-04-26T13:00:53.916Z,25.53
2019-04-26T13:03:20.424Z,25.51
2019-04-26T13:05:43.204Z,25.51
2019-04-26T13:08:09.174Z,25.49
2019-04-26T13:10:53.302Z,25.50
2019-04-26T13:13:21.156Z,25.43
2019-04-26T13:15:55.103Z,25.38
2019-04-26T13:18:20.983Z,25.37
2019-04-26T13:20:46.961Z,25.33
2019-04-26T13:23:12.822Z,25.27
2019-04-26T13:25:40.521Z,25.26
2019-04-26T13:28:06.566Z,25.20
2019-04-26T13:30:33.194Z,25.18
2019-04-26T13:32:59.136Z,25.15
2019-04-26T13:35:25.060Z,25.15
2019-04-26T13:37:50.903Z,25.07
2019-04-26T13:40:16.916Z,24.99
2019-04-26T13:42:42.796Z,24.87
2019-04-26T13:45:13.473Z,24.77
2019-04-26T13:47:57.752Z,24.70
2019-04-26T13:50:26.562Z,24.62
2019-04-26T13:52:53.459Z,24.51
2019-04-26T13:55:19.465Z,24.41
2019-04-26T13:57:46.139Z,24.40
2019-04-26T14:00:14.112Z,24.39
2019-04-26T14:02:40.162Z,24.29
2019-04-26T14:05:06.056Z,24.25
2019-04-26T14:07:32.030Z,24.16
2019-04-26T14:09:57.938Z,24.06
2019-04-26T14:12:23.915Z,24.06
2019-04-26T14:14:49.808Z,24.15
2019-04-26T14:17:15.788Z,24.13
2019-04-26T14:19:41.666Z,24.12
2019-04-26T14:22:08.248Z,24.09
2019-04-26T14:24:38.865Z,24.10
2019-04-26T14:27:15.065Z,24.08
2019-04-26T14:29:38.382Z,24.11
2019-04-26T14:32:04.434Z,24.15
2019-04-26T14:34:30.642Z,23.95
2019-04-26T14:37:06.366Z,24.08
2019-04-26T14:39:38.420Z,24.02
2019-04-26T14:41:52.644Z,23.92
2019-04-26T14:44:19.776Z,23.81
2019-04-26T14:46:48.940Z,23.75
2019-04-26T14:49:13.279Z,23.68
2019-04-26T14:51:40.672Z,23.64
2019-04-26T14:54:07.382Z,23.52
2019-04-26T14:56:34.369Z,23.45
2019-04-26T14:59:01.836Z,23.46
2019-04-26T15:01:32.234Z,23.46
2019-04-26T15:04:15.854Z,23.49
2019-04-26T15:06:43.590Z,23.55
2019-04-26T15:09:18.007Z,23.60
2019-04-26T15:11:37.988Z,23.65
2019-04-26T15:14:04.601Z,23.68
2019-04-26T15:16:30.698Z,23.71
2019-04-26T15:18:56.553Z,23.69
2019-04-26T15:21:22.902Z,23.69
2019-04-26T15:23:48.703Z,23.71
2019-04-26T15:26:14.652Z,23.72
2019-04-26T15:28:43.697Z,23.71
2019-04-26T15:31:08.349Z,23.69
2019-04-26T15:33:35.955Z,23.70
2019-04-26T15:36:02.332Z,23.75
2019-04-26T15:38:34.845Z,23.74
2019-04-26T15:40:59.379Z,23.72
2019-04-26T15:43:29.955Z,23.69
2019-04-26T15:46:03.579Z,23.67
2019-04-26T15:48:50.390Z,23.66
2019-04-26T15:51:20.075Z,23.64
2019-04-26T15:53:48.862Z,23.61
2019-04-26T15:56:16.812Z,23.59
2019-04-26T15:58:45.841Z,23.57
2019-04-26T16:01:10.848Z,23.53
2019-04-26T16:03:40.811Z,23.48
2019-04-26T16:06:07.135Z,23.38
2019-04-26T16:08:33.960Z,23.21
2019-04-26T16:11:00.108Z,23.04
2019-04-26T16:13:26.290Z,22.86
2019-04-26T16:15:52.132Z,22.72
2019-04-26T16:18:19.209Z,22.59
2019-04-26T16:20:45.094Z,22.34
2019-04-26T16:23:13.343Z,22.07
2019-04-26T16:25:39.341Z,21.92
2019-04-26T16:28:23.535Z,21.82
2019-04-26T16:31:10.964Z,21.71
2019-04-26T16:33:40.012Z,21.63
2019-04-26T16:36:06.385Z,21.60
2019-04-26T16:38:33.666Z,21.54
2019-04-26T16:40:59.674Z,21.46
2019-04-26T16:43:36.628Z,21.38
2019-04-26T16:45:54.248Z,21.29
2019-04-26T16:48:22.255Z,21.19
2019-04-26T16:50:48.143Z,21.08
2019-04-26T16:53:36.454Z,20.91
2019-04-26T16:55:48.898Z,20.82
2019-04-26T16:58:09.475Z,20.73
2019-04-26T17:00:50.774Z,20.68
2019-04-26T17:03:07.838Z,20.62
2019-04-26T17:05:47.669Z,20.54
2019-04-26T17:08:05.047Z,20.50
2019-04-26T17:10:27.307Z,20.44
2019-04-26T17:12:54.381Z,20.40
2019-04-26T17:15:20.939Z,20.35
2019-04-26T17:17:50.439Z,20.31
2019-04-26T17:20:15.820Z,20.25
2019-04-26T17:22:59.491Z,20.21
2019-04-26T17:25:27.789Z,20.15
2019-04-26T17:27:53.655Z,20.09
2019-04-26T17:30:21.468Z,20.03
2019-04-26T17:32:51.117Z,19.97
2019-04-26T17:35:15.215Z,19.91
2019-04-26T17:37:41.215Z,19.84
2019-04-26T17:40:08.788Z,19.79
2019-04-26T17:42:36.464Z,19.74
2019-04-26T17:45:06.832Z,19.68
2019-04-26T17:47:34.696Z,19.63
2019-04-26T17:50:04.587Z,19.58
2019-04-26T17:52:31.244Z,19.51
2019-04-26T17:54:54.944Z,19.46
2019-04-26T17:57:32.120Z,19.40
2019-04-26T17:59:50.947Z,19.32
2019-04-26T18:02:31.517Z,19.23
2019-04-26T18:04:44.459Z,19.14
2019-04-26T18:07:36.403Z,19.07
2019-04-26T18:09:43.916Z,18.97
2019-04-26T18:12:06.354Z,18.89
2019-04-26T18:14:32.344Z,18.81
2019-04-26T18:17:01.329Z,18.73
2019-04-26T18:19:44.503Z,18.63
2019-04-26T18:22:15.194Z,18.52
2019-04-26T18:24:41.195Z,18.38
2019-04-26T18:27:07.199Z,18.30
2019-04-26T18:29:33.667Z,18.20
2019-04-26T18:32:03.473Z,18.11
2019-04-26T18:34:30.479Z,18.01
2019-04-26T18:36:54.983Z,17.91
2019-04-26T18:39:22.822Z,17.83
2019-04-26T18:41:48.678Z,17.76
2019-04-26T18:44:14.608Z,17.69
2019-04-26T18:46:48.478Z,17.58
2019-04-26T18:49:18.207Z,17.50
2019-04-26T18:51:48.120Z,17.38
2019-04-26T18:54:21.021Z,17.25
2019-04-26T18:56:53.316Z,17.13
2019-04-26T18:59:19.337Z,17.02
2019-04-26T19:01:45.408Z,16.90
2019-04-26T19:04:14.927Z,16.81
2019-04-26T19:06:42.363Z,16.73
2019-04-26T19:09:07.392Z,16.61
2019-04-26T19:11:35.550Z,16.51
2019-04-26T19:14:17.704Z,16.42
2019-04-26T19:16:46.435Z,16.30
2019-04-26T19:19:22.617Z,16.19
2019-04-26T19:21:47.490Z,16.09
2019-04-26T19:24:19.411Z,15.98
2019-04-26T19:26:44.130Z,15.89
2019-04-26T19:29:16.273Z,15.79
2019-04-26T19:31:36.780Z,15.70
2019-04-26T19:34:02.762Z,15.61
2019-04-26T19:36:29.340Z,15.52
2019-04-26T19:38:55.269Z,15.42
2019-04-26T19:41:21.638Z,15.35
2019-04-26T19:43:48.670Z,15.27
2019-04-26T19:46:25.515Z,15.19
2019-04-26T19:49:09.507Z,15.11
2019-04-26T19:51:59.727Z,15.01
2019-04-26T19:54:41.844Z,14.93
2019-04-26T19:57:15.462Z,14.85
2019-04-26T19:59:42.277Z,14.73
2019-04-26T20:02:08.490Z,14.64
2019-04-26T20:04:34.493Z,14.57
2019-04-26T20:07:01.367Z,14.47
2019-04-26T20:09:27.536Z,14.39
2019-04-26T20:11:58.055Z,14.31
2019-04-26T20:14:25.797Z,14.23
2019-04-26T20:16:48.965Z,14.15
2019-04-26T20:19:17.747Z,14.09
2019-04-26T20:21:45.473Z,14.01
2019-04-26T20:24:10.183Z,13.94
2019-04-26T20:26:37.459Z,13.86
2019-04-26T20:29:06.228Z,13.80
2019-04-26T20:31:37.618Z,13.71
2019-04-26T20:34:05.669Z,13.65
2019-04-26T20:36:37.188Z,13.56
2019-04-26T20:38:59.401Z,13.47
2019-04-26T20:41:25.325Z,13.39
2019-04-26T20:44:04.494Z,13.31
2019-04-26T20:46:18.921Z,13.22
2019-04-26T20:48:44.797Z,13.15
2019-04-26T20:51:11.906Z,13.06
2019-04-26T20:53:41.136Z,12.98
2019-04-26T20:56:09.943Z,12.91
2019-04-26T20:58:33.500Z,12.82
2019-04-26T21:01:01.366Z,12.72
2019-04-26T21:03:27.923Z,12.63
2019-04-26T21:05:59.139Z,12.52
2019-04-26T21:08:25.747Z,12.49
2019-04-26T21:10:49.323Z,12.40
2019-04-26T21:13:15.197Z,12.33
2019-04-26T21:15:52.637Z,12.26
2019-04-26T21:18:08.856Z,12.17
2019-04-26T21:20:36.437Z,12.09
2019-04-26T21:23:03.683Z,12.02
2019-04-26T21:25:32.463Z,11.93
2019-04-26T21:28:02.522Z,11.86
2019-04-26T21:30:49.019Z,11.81
2019-04-26T21:33:16.832Z,11.75
2019-04-26T21:35:53.270Z,11.70
2019-04-26T21:38:21.129Z,11.66
2019-04-26T21:41:04.336Z,11.59
2019-04-26T21:43:29.599Z,11.52
2019-04-26T21:46:07.274Z,11.44
2019-04-26T21:48:24.276Z,11.38
2019-04-26T21:50:50.267Z,11.32
2019-04-26T21:53:16.221Z,11.26
2019-04-26T21:55:43.477Z,11.20
2019-04-26T21:58:09.420Z,11.15
2019-04-26T22:00:48.974Z,11.10
2019-04-26T22:03:16.156Z,11.06
2019-04-26T22:05:43.926Z,10.95
2019-04-26T22:08:09.923Z,10.93
2019-04-26T22:10:39.627Z,10.89
2019-04-26T22:13:07.371Z,10.82
2019-04-26T22:15:37.530Z,10.76
2019-04-26T22:18:04.863Z,10.72
2019-04-26T22:20:35.495Z,10.66
2019-04-26T22:23:16.366Z,10.59
2019-04-26T22:25:41.744Z,10.56
2019-04-26T22:28:07.838Z,10.48
2019-04-26T22:30:33.789Z,10.43
2019-04-26T22:32:59.786Z,10.37
2019-04-26T22:35:25.727Z,10.30
2019-04-26T22:37:51.581Z,10.24
2019-04-26T22:40:19.864Z,10.17
2019-04-26T22:42:47.121Z,10.11
2019-04-26T22:45:14.986Z,10.06
2019-04-26T22:48:00.872Z,9.99
2019-04-26T22:50:26.742Z,9.93
2019-04-26T22:52:54.636Z,9.86
2019-04-26T22:55:24.186Z,9.81
2019-04-26T22:57:49.532Z,9.77
2019-04-26T23:00:20.137Z,9.72
2019-04-26T23:02:45.677Z,9.69
2019-04-26T23:05:11.761Z,9.65
2019-04-26T23:07:37.742Z,9.61
2019-04-26T23:10:05.918Z,9.57
2019-04-26T23:12:50.468Z,9.52
2019-04-26T23:15:18.411Z,9.48
2019-04-26T23:17:54.985Z,9.44
2019-04-26T23:20:29.084Z,9.38
2019-04-26T23:22:56.134Z,9.34
2019-04-26T23:25:23.727Z,9.29
2019-04-26T23:27:50.491Z,9.24
2019-04-26T23:30:17.524Z,9.18
2019-04-26T23:32:43.532Z,9.12
2019-04-26T23:35:09.596Z,9.08
2019-04-26T23:37:35.586Z,9.05
2019-04-26T23:40:01.547Z,9.00
2019-04-26T23:42:27.539Z,8.95
2019-04-26T23:44:53.523Z,8.91
2019-04-26T23:47:23.011Z,8.87
2019-04-26T23:49:49.423Z,8.83
2019-04-26T23:52:18.616Z,8.77
2019-04-26T23:54:42.500Z,8.73
2019-04-26T23:57:08.492Z,8.69
2019-04-26T23:59:34.412Z,8.65
